Time;durP1;ratioP1;P1;durP2;ratioP2;P2;SDS_P1;SDS_P2;PMS_P1;PMS_P2;Temp;Humidity;BMP_temperature;BMP_pressure;BME280_temperature;BME280_humidity;BME280_pressure;Samples;Min_cycle;Max_cycle;Signal;HPM_P1;HPM_P2
2022/06/08 00:02:26;;;;;;;25.98;17.08;;;;;;;19.24;60.62;101013.44;4970012;28;125933;-61
2022/06/08 00:04:53;;;;;;;25.63;17.00;;;;;;;19.23;60.66;101006.38;4970262;28;123476;-60
2022/06/08 00:07:20;;;;;;;25.50;16.88;;;;;;;19.23;60.72;101001.03;4971299;28;113116;-60
2022/06/08 00:09:47;;;;;;;27.45;17.83;;;;;;;19.21;60.85;101008.34;4969804;28;114812;-60
2022/06/08 00:12:15;;;;;;;28.08;16.90;;;;;;;19.21;60.81;101002.09;4971759;28;123943;-60
2022/06/08 00:14:42;;;;;;;25.75;16.17;;;;;;;19.21;61.01;101013.72;4984648;28;122892;-60
2022/06/08 00:17:10;;;;;;;26.42;17.20;;;;;;;19.21;61.00;101008.34;4971599;28;114351;-60
2022/06/08 00:19:37;;;;;;;29.05;17.83;;;;;;;19.20;60.91;100995.88;4970427;28;115843;-60
2022/06/08 00:22:04;;;;;;;28.50;17.67;;;;;;;19.19;61.05;100994.19;4970639;28;124276;-60
2022/06/08 00:24:32;;;;;;;30.00;18.80;;;;;;;19.18;60.99;100992.47;4971497;28;124706;-60
2022/06/08 00:27:00;;;;;;;27.67;18.02;;;;;;;19.16;61.08;100994.41;4971700;28;114407;-61
2022/06/08 00:29:27;;;;;;;29.92;18.80;;;;;;;19.14;61.17;100991.00;4970943;28;113058;-61
2022/06/08 00:31:56;;;;;;;27.50;17.45;;;;;;;19.14;61.12;100979.41;4971496;28;123220;-60
2022/06/08 00:34:24;;;;;;;28.60;18.20;;;;;;;19.12;61.15;100982.22;4971892;28;123110;-60
2022/06/08 00:36:51;;;;;;;27.52;17.58;;;;;;;19.10;61.02;100978.81;4971818;28;113180;-61
2022/06/08 00:39:18;;;;;;;28.70;18.50;;;;;;;19.09;61.16;100982.44;4971130;28;113797;-61
2022/06/08 00:41:50;;;;;;;29.67;18.45;;;;;;;19.08;61.03;100974.50;4967212;28;124022;-61
2022/06/08 00:44:33;;;;;;;28.80;17.80;;;;;;;19.05;61.04;100970.25;4971015;28;123437;-60
2022/06/08 00:47:02;;;;;;;30.52;18.75;;;;;;;19.03;60.88;100966.84;4969727;28;114994;-61
2022/06/08 00:49:33;;;;;;;27.30;17.85;;;;;;;19.02;60.96;100965.09;4968843;28;114116;-61
2022/06/08 00:52:01;;;;;;;28.25;18.88;;;;;;;19.00;61.25;100965.22;4971163;28;123129;-61
2022/06/08 00:54:38;;;;;;;28.60;18.70;;;;;;;19.00;61.16;100961.69;4976985;28;123555;-60
2022/06/08 00:57:28;;;;;;;27.45;18.50;;;;;;;18.99;61.12;100957.31;4965493;28;114252;-60
2022/06/08 01:00:10;;;;;;;30.35;19.67;;;;;;;18.97;61.20;100945.84;4970933;28;113296;-61
2022/06/08 01:02:38;;;;;;;31.50;19.15;;;;;;;18.98;60.91;100958.28;4970251;28;123839;-60
2022/06/08 01:05:29;;;;;;;29.73;18.95;;;;;;;18.96;61.17;100954.88;4970623;28;123045;-61
2022/06/08 01:08:21;;;;;;;31.50;19.63;;;;;;;18.96;61.47;100949.50;4954388;28;117882;-60
2022/06/08 01:10:54;;;;;;;30.02;19.30;;;;;;;18.95;61.37;100947.78;4971624;28;114371;-61
2022/06/08 01:13:23;;;;;;;32.72;19.75;;;;;;;18.95;61.47;100959.38;4970668;28;123280;-60
2022/06/08 01:15:50;;;;;;;31.17;19.88;;;;;;;18.95;61.46;100954.03;4966220;28;124015;-60
2022/06/08 01:18:21;;;;;;;32.03;19.33;;;;;;;18.95;61.48;100947.78;4970170;28;112762;-60
2022/06/08 01:20:55;;;;;;;30.77;19.58;;;;;;;18.94;61.69;100943.41;4969537;28;114863;-60
2022/06/08 01:23:31;;;;;;;31.60;20.40;;;;;;;18.95;61.59;100942.41;4969331;28;123240;-60
2022/06/08 01:26:18;;;;;;;34.28;19.48;;;;;;;18.93;61.41;100939.00;4967834;28;123061;-60
2022/06/08 01:28:54;;;;;;;31.65;20.13;;;;;;;18.92;61.29;100937.31;4968580;28;115179;-61
2022/06/08 01:31:34;;;;;;;;;;;;;;;18.88;60.97;100930.47;4970567;28;112755;-61
2022/06/08 01:34:32;;;;;;;30.67;19.38;;;;;;;18.86;61.17;100915.31;4969629;28;123236;-60
2022/06/08 01:37:08;;;;;;;28.67;18.65;;;;;;;18.83;61.26;100912.88;4967936;28;123553;-60
2022/06/08 01:39:49;;;;;;;32.05;19.70;;;;;;;18.82;61.08;100916.56;4970496;28;114591;-60
2022/06/08 01:42:25;;;;;;;31.83;19.77;;;;;;;18.80;61.24;100907.78;4970317;28;113871;-60
2022/06/08 01:45:30;;;;;;;31.27;21.00;;;;;;;18.76;60.96;100906.28;4969363;28;123048;-60
2022/06/08 01:48:01;;;;;;;32.20;20.73;;;;;;;18.72;61.08;100904.78;4969463;28;124521;-60
2022/06/08 01:50:48;;;;;;;30.10;20.02;;;;;;;18.68;61.16;100908.69;4969809;28;113469;-62
2022/06/08 01:53:51;;;;;;;30.73;20.00;;;;;;;18.61;61.05;100897.59;4970203;28;112935;-60
2022/06/08 01:56:47;;;;;;;33.22;21.25;;;;;;;18.58;61.04;100886.25;4958236;28;123542;-60
2022/06/08 01:59:43;;;;;;;32.42;20.45;;;;;;;18.54;61.26;100879.41;4968208;28;122814;-60
2022/06/08 02:02:22;;;;;;;31.90;20.10;;;;;;;18.51;61.06;100885.00;4966292;28;114444;-60
2022/06/08 02:05:12;;;;;;;33.22;21.77;;;;;;;18.47;61.37;100882.56;4966269;28;115709;-60
2022/06/08 02:08:14;;;;;;;32.15;21.08;;;;;;;18.43;61.12;100881.09;4968393;28;123779;-60
2022/06/08 02:10:45;;;;;;;30.50;19.67;;;;;;;18.40;61.13;100870.63;4970068;28;123133;-60
2022/06/08 02:13:23;;;;;;;32.72;20.75;;;;;;;18.38;61.32;100869.84;4970844;28;113506;-60
2022/06/08 02:15:58;;;;;;;31.58;20.02;;;;;;;18.36;61.50;100866.44;4970211;28;113287;-60
2022/06/08 02:18:36;;;;;;;31.23;18.93;;;;;;;18.31;61.21;100863.28;4968709;28;127165;-60
2022/06/08 02:21:17;;;;;;;30.38;18.85;;;;;;;18.30;61.17;100856.22;4969666;28;123865;-60
2022/06/08 02:23:54;;;;;;;27.38;18.42;;;;;;;18.26;61.35;100855.59;4965028;28;113342;-60
2022/06/08 02:26:37;;;;;;;27.05;18.02;;;;;;;18.23;61.27;100845.13;4971208;28;114823;-60
2022/06/08 02:29:11;;;;;;;26.95;17.80;;;;;;;18.21;61.26;100851.56;4965212;28;123232;-60
2022/06/08 02:31:50;;;;;;;26.87;17.70;;;;;;;18.19;61.31;100848.13;4968756;28;122797;-60
2022/06/08 02:34:41;;;;;;;25.13;17.00;;;;;;;18.17;61.06;100844.72;4970050;28;112989;-60
2022/06/08 02:37:11;;;;;;;25.50;16.75;;;;;;;18.16;61.25;100837.63;4956757;28;113378;-60
2022/06/08 02:39:57;;;;;;;25.85;16.13;;;;;;;18.14;61.32;100836.91;4969006;28;124801;-60
2022/06/08 02:42:37;;;;;;;25.88;16.00;;;;;;;18.11;61.34;100829.13;4967284;28;124019;-60
2022/06/08 02:45:14;;;;;;;23.27;15.68;;;;;;;18.08;61.47;100828.38;4969313;28;113235;-60
2022/06/08 02:47:45;;;;;;;23.52;16.15;;;;;;;18.06;61.42;100822.28;4964404;28;113341;-59
2022/06/08 02:50:23;;;;;;;21.92;14.88;;;;;;;18.04;61.45;100821.53;4969211;28;123171;-60
2022/06/08 02:53:04;;;;;;;24.63;15.75;;;;;;;18.03;61.46;100822.53;4967481;28;123010;-61
2022/06/08 02:55:49;;;;;;;23.00;15.45;;;;;;;18.01;61.41;100819.09;4965182;28;114939;-60
2022/06/08 02:58:36;;;;;;;26.08;16.58;;;;;;;18.00;61.46;100820.06;4968683;28;114597;-60
2022/06/08 03:01:15;;;;;;;26.00;16.35;;;;;;;17.98;61.41;100813.97;4964425;28;123324;-60
2022/06/08 03:03:51;;;;;;;24.90;16.08;;;;;;;17.96;61.51;100815.91;4965352;28;123070;-60
2022/06/08 03:06:26;;;;;;;23.17;15.57;;;;;;;17.94;61.46;100812.50;4968535;28;114650;-60
2022/06/08 03:08:58;;;;;;;24.60;16.40;;;;;;;17.93;61.45;100810.78;4965827;28;114284;-60
2022/06/08 03:11:33;;;;;;;25.40;16.17;;;;;;;17.91;61.51;100807.38;4964071;28;123250;-60
2022/06/08 03:14:04;;;;;;;22.45;14.80;;;;;;;17.90;61.63;100805.69;4969672;28;122662;-60
2022/06/08 03:16:35;;;;;;;24.05;15.68;;;;;;;17.88;61.23;100807.63;4945737;28;113438;-60
2022/06/08 03:19:09;;;;;;;25.08;16.25;;;;;;;17.87;61.67;100805.91;4956487;28;116363;-60
2022/06/08 03:21:37;;;;;;;26.08;16.27;;;;;;;17.85;61.65;100807.84;4971512;28;123248;-60
2022/06/08 03:24:06;;;;;;;25.20;15.10;;;;;;;17.84;61.66;100800.75;4972366;28;123051;-60
2022/06/08 03:26:40;;;;;;;24.20;15.68;;;;;;;17.83;61.97;100804.41;4970186;28;113402;-60
2022/06/08 03:29:08;;;;;;;21.90;15.20;;;;;;;17.83;61.76;100809.75;4969957;28;113612;-59
2022/06/08 03:31:36;;;;;;;25.52;16.05;;;;;;;17.81;61.87;100800.97;4970915;28;123436;-59
2022/06/08 03:34:05;;;;;;;21.08;14.18;;;;;;;17.81;61.91;100804.50;4971993;28;124511;-59
2022/06/08 03:36:33;;;;;;;23.13;15.10;;;;;;;17.80;62.04;100804.63;4973152;28;114649;-58
2022/06/08 03:39:02;;;;;;;22.88;15.32;;;;;;;17.78;61.93;100802.09;4971974;28;113822;-60
2022/06/08 03:41:32;;;;;;;24.60;15.68;;;;;;;17.77;62.00;100799.50;4971915;28;123821;-60
2022/06/08 03:44:00;;;;;;;23.15;15.27;;;;;;;17.77;62.15;100804.88;4971008;28;123724;-60
2022/06/08 03:46:28;;;;;;;23.20;15.13;;;;;;;17.75;62.13;100806.81;4969669;28;114564;-60
2022/06/08 03:48:57;;;;;;;25.35;15.02;;;;;;;17.75;62.18;100804.13;4969419;28;114072;-60
2022/06/08 03:51:25;;;;;;;25.80;15.85;;;;;;;17.74;62.40;100794.38;4970159;28;124412;-60
2022/06/08 03:53:58;;;;;;;24.27;14.85;;;;;;;17.75;62.33;100793.41;4971388;28;123947;-61
2022/06/08 03:56:28;;;;;;;23.35;14.90;;;;;;;17.75;62.45;100798.78;4971956;28;113427;-60
2022/06/08 03:58:57;;;;;;;22.23;14.80;;;;;;;17.76;62.45;100795.13;4985849;28;113188;-60
2022/06/08 04:01:26;;;;;;;23.05;14.75;;;;;;;17.78;62.50;100795.84;4971768;28;123353;-60
2022/06/08 04:03:58;;;;;;;22.98;15.25;;;;;;;17.80;62.63;100793.91;4972325;28;123007;-60
2022/06/08 04:06:28;;;;;;;22.60;13.68;;;;;;;17.82;62.68;100802.69;4969771;28;113293;-60
2022/06/08 04:08:56;;;;;;;20.42;13.90;;;;;;;17.84;62.58;100806.13;4970921;28;113300;-60
2022/06/08 04:11:26;;;;;;;22.00;13.85;;;;;;;17.86;62.71;100806.88;4966304;28;123757;-60
2022/06/08 04:14:00;;;;;;;19.90;12.73;;;;;;;17.90;62.81;100811.03;4981114;28;124169;-61
2022/06/08 04:16:28;;;;;;;19.40;12.20;;;;;;;17.92;62.96;100819.81;4969792;28;113481;-61
2022/06/08 04:19:00;;;;;;;20.38;12.35;;;;;;;17.95;62.78;100814.22;4972380;28;115069;-60
2022/06/08 04:21:31;;;;;;;20.65;12.25;;;;;;;17.99;62.93;100810.34;4969537;28;123076;-61
2022/06/08 04:24:02;;;;;;;19.15;12.32;;;;;;;18.02;62.82;100810.06;4971025;28;124557;-61
2022/06/08 04:26:30;;;;;;;18.95;12.05;;;;;;;18.05;63.09;100815.22;4969764;28;113780;-60
2022/06/08 04:29:05;;;;;;;15.88;11.02;;;;;;;18.07;63.14;100813.25;4968970;28;113432;-61
2022/06/08 04:31:34;;;;;;;16.50;10.80;;;;;;;18.12;63.10;100804.00;4969850;28;123125;-61
2022/06/08 04:34:15;;;;;;;16.45;10.70;;;;;;;18.15;63.06;100799.25;4970052;28;123701;-61
2022/06/08 04:36:43;;;;;;;17.83;11.73;;;;;;;18.19;63.29;100799.88;4971181;28;114224;-61
2022/06/08 04:39:13;;;;;;;16.50;11.02;;;;;;;18.25;63.24;100805.63;4970373;28;114063;-61
2022/06/08 04:41:47;;;;;;;15.10;10.85;;;;;;;18.32;63.27;100795.25;4968546;28;127606;-61
2022/06/08 04:44:14;;;;;;;16.63;10.88;;;;;;;18.36;63.25;100804.78;4971037;28;122881;-61
2022/06/08 04:46:43;;;;;;;15.80;10.60;;;;;;;18.40;63.22;100800.91;4971213;28;113384;-61
2022/06/08 04:49:16;;;;;;;17.55;11.13;;;;;;;18.45;63.25;100801.38;4967849;28;113703;-61
2022/06/08 04:51:46;;;;;;;16.15;10.50;;;;;;;18.49;63.37;100794.78;4968792;28;123723;-61
2022/06/08 04:54:14;;;;;;;16.02;10.75;;;;;;;18.53;63.12;100791.88;4971578;28;123019;-61
2022/06/08 04:56:43;;;;;;;14.18;10.07;;;;;;;18.58;63.24;100795.03;4970863;28;113789;-61
2022/06/08 04:59:10;;;;;;;16.58;10.23;;;;;;;18.63;63.20;100792.84;4968946;28;113165;-61
2022/06/08 05:01:41;;;;;;;13.23;9.80;;;;;;;18.66;63.24;100782.72;4969174;28;123188;-61
2022/06/08 05:04:12;;;;;;;13.98;9.95;;;;;;;18.72;63.34;100786.72;4971006;28;123099;-61
2022/06/08 05:06:42;;;;;;;15.57;10.02;;;;;;;18.77;63.17;100773.81;4970524;28;113690;-61
2022/06/08 05:09:09;;;;;;;13.63;9.95;;;;;;;18.82;63.35;100768.97;4964711;28;113254;-61
2022/06/08 05:11:41;;;;;;;15.80;9.38;;;;;;;18.89;63.19;100760.41;4968237;28;123099;-61
2022/06/08 05:14:09;;;;;;;12.88;8.98;;;;;;;18.95;63.14;100765.25;4970435;28;123560;-61
2022/06/08 05:16:37;;;;;;;13.48;8.75;;;;;;;19.00;63.14;100763.06;4971394;28;113230;-61
2022/06/08 05:19:04;;;;;;;14.13;8.95;;;;;;;19.05;62.96;100756.34;4969861;28;114036;-61
2022/06/08 05:21:32;;;;;;;14.50;8.88;;;;;;;19.10;63.21;100764.03;4984867;28;123852;-61
2022/06/08 05:24:08;;;;;;;12.10;8.63;;;;;;;19.17;63.23;100761.69;4969352;28;124610;-60
2022/06/08 05:26:40;;;;;;;12.05;8.18;;;;;;;19.22;63.07;100752.25;4962208;28;114079;-60
2022/06/08 05:29:08;;;;;;;14.43;8.38;;;;;;;19.30;63.00;100748.94;4966244;28;114456;-61
2022/06/08 05:31:37;;;;;;;11.48;7.82;;;;;;;19.35;62.83;100746.72;4970048;28;123189;-63
2022/06/08 05:34:04;;;;;;;10.13;7.50;;;;;;;19.42;62.85;100747.03;4968423;28;123819;-62
2022/06/08 05:36:33;;;;;;;12.05;8.00;;;;;;;19.46;62.93;100737.78;4969706;28;113977;-62
2022/06/08 05:39:11;;;;;;;10.50;8.02;;;;;;;19.51;62.93;100735.53;4969559;28;113195;-62
2022/06/08 05:41:42;;;;;;;10.73;7.72;;;;;;;19.55;62.72;100728.94;4969110;28;125154;-62
2022/06/08 05:44:11;;;;;;;10.98;7.68;;;;;;;19.58;62.86;100719.75;4954558;28;123044;-62
2022/06/08 05:46:39;;;;;;;11.57;7.68;;;;;;;19.62;62.64;100716.66;4969148;28;113734;-62
2022/06/08 05:49:11;;;;;;;12.60;7.15;;;;;;;19.67;62.44;100720.81;4984281;28;113048;-62
2022/06/08 05:51:42;;;;;;;9.10;6.75;;;;;;;19.70;62.30;100717.84;4968357;28;123503;-62
2022/06/08 05:54:10;;;;;;;9.07;7.15;;;;;;;19.72;62.43;100726.63;4965473;28;123036;-62
2022/06/08 05:56:40;;;;;;;10.10;7.95;;;;;;;19.77;62.36;100724.44;4969906;28;113795;-62
2022/06/08 05:59:07;;;;;;;9.40;6.75;;;;;;;19.80;62.39;100718.81;4940747;28;113317;-62
2022/06/08 06:01:39;;;;;;;9.57;7.18;;;;;;;19.83;62.26;100718.53;4969714;28;123238;-62
2022/06/08 06:04:08;;;;;;;8.10;6.38;;;;;;;19.86;62.36;100704.84;4965088;28;123778;-62
2022/06/08 06:06:38;;;;;;;9.40;6.68;;;;;;;19.89;62.28;100707.28;4966186;28;114264;-62
2022/06/08 06:09:05;;;;;;;7.82;6.13;;;;;;;19.93;62.02;100697.94;4965239;28;113288;-62
2022/06/08 06:11:34;;;;;;;8.60;6.50;;;;;;;19.96;62.07;100697.66;4945670;28;123920;-60
2022/06/08 06:14:01;;;;;;;9.38;6.40;;;;;;;20.00;62.11;100688.38;4963768;28;123981;-62
2022/06/08 06:16:30;;;;;;;8.98;6.72;;;;;;;20.03;62.09;100688.06;4968636;28;114669;-62
2022/06/08 06:18:58;;;;;;;8.68;7.13;;;;;;;20.08;62.07;100700.25;4982611;28;114426;-60
2022/06/08 06:21:32;;;;;;;8.55;6.28;;;;;;;20.11;61.97;100694.63;4967501;28;123181;-60
2022/06/08 06:24:22;;;;;;;11.13;7.03;;;;;;;20.13;61.99;100688.13;4964661;28;122681;-60
2022/06/08 06:27:08;;;;;;;9.70;5.85;;;;;;;20.18;61.78;100679.66;4965578;28;114994;-62
2022/06/08 06:29:57;;;;;;;7.22;5.47;;;;;;;20.20;61.64;100683.06;4969599;28;113185;-62
2022/06/08 06:32:57;;;;;;;6.85;5.38;;;;;;;20.24;61.77;100681.81;4976781;28;124667;-62
2022/06/08 06:35:29;;;;;;;6.68;5.60;;;;;;;20.28;61.63;100679.69;4970659;28;123860;-60
2022/06/08 06:38:05;;;;;;;7.00;5.07;;;;;;;20.32;61.62;100667.66;4968231;28;114336;-60
2022/06/08 06:40:35;;;;;;;6.72;4.75;;;;;;;20.35;61.51;100670.94;4956906;28;113222;-60
2022/06/08 06:43:04;;;;;;;6.95;4.93;;;;;;;20.38;61.32;100673.38;4969672;28;123265;-62
2022/06/08 06:45:40;;;;;;;6.45;4.95;;;;;;;20.42;61.30;100676.63;4962336;28;124294;-62
2022/06/08 06:48:30;;;;;;;8.35;4.65;;;;;;;20.47;61.26;100679.75;4961788;28;114183;-60
2022/06/08 06:51:03;;;;;;;10.30;4.60;;;;;;;20.54;61.30;100674.69;4986141;28;112692;-60
2022/06/08 06:53:31;;;;;;;7.10;4.65;;;;;;;20.58;61.39;100676.09;4950149;28;123186;-60
2022/06/08 06:55:59;;;;;;;5.38;4.25;;;;;;;20.64;61.14;100675.56;4960626;28;123624;-60
2022/06/08 06:58:36;;;;;;;5.68;4.43;;;;;;;20.66;60.95;100683.50;4969406;28;117200;-60
2022/06/08 07:01:05;;;;;;;6.20;4.65;;;;;;;20.68;60.90;100679.72;4979988;28;113093;-60
2022/06/08 07:03:35;;;;;;;6.28;4.50;;;;;;;20.69;60.72;100678.69;4972233;28;123196;-61
2022/06/08 07:06:03;;;;;;;5.97;4.60;;;;;;;20.72;60.79;100688.31;4960740;28;123091;-61
2022/06/08 07:08:31;;;;;;;6.43;4.85;;;;;;;20.72;60.82;100682.94;4964020;28;115505;-61
2022/06/08 07:13:49;;;;;;;6.72;4.50;;;;;;;20.80;60.58;100681.28;4969152;28;123353;-61
2022/06/08 07:16:16;;;;;;;9.65;4.68;;;;;;;20.85;60.71;100680.00;4956760;28;122909;-61
2022/06/08 07:18:44;;;;;;;6.97;4.80;;;;;;;20.91;60.80;100682.16;4964288;28;113819;-62
2022/06/08 07:21:12;;;;;;;9.45;4.75;;;;;;;20.96;60.54;100679.88;4948785;28;112927;-61
2022/06/08 07:23:41;;;;;;;7.25;4.50;;;;;;;21.02;60.65;100673.06;4950543;28;124666;-61
2022/06/08 07:26:09;;;;;;;5.40;4.05;;;;;;;21.09;60.73;100675.06;4953221;28;124087;-61
2022/06/08 07:28:36;;;;;;;4.72;3.80;;;;;;;21.16;60.51;100665.41;4969408;28;114934;-61
2022/06/08 07:31:04;;;;;;;5.28;3.97;;;;;;;21.23;60.49;100654.06;4959867;28;113830;-61
2022/06/08 07:33:33;;;;;;;6.50;3.75;;;;;;;21.32;60.18;100658.59;4967023;28;124201;-61
2022/06/08 07:36:01;;;;;;;4.05;3.60;;;;;;;21.39;60.25;100659.72;4959166;28;124429;-61
2022/06/08 07:38:28;;;;;;;4.50;3.60;;;;;;;21.47;60.18;100646.41;4961487;28;114653;-62
2022/06/08 07:40:55;;;;;;;4.30;3.40;;;;;;;21.54;59.95;100647.53;4970522;28;114351;-61
2022/06/08 07:43:23;;;;;;;7.97;3.67;;;;;;;21.64;59.88;100641.28;4966988;28;124780;-61
2022/06/08 07:45:52;;;;;;;6.00;4.03;;;;;;;21.70;59.63;100649.63;4945796;28;122931;-61
2022/06/08 07:51:05;;;;;;;4.82;3.72;;;;;;;21.81;59.36;100648.59;4965790;28;114384;-61
2022/06/08 07:53:32;;;;;;;4.63;3.65;;;;;;;21.84;59.09;100647.47;4952614;28;124630;-61
2022/06/08 07:55:59;;;;;;;7.53;3.60;;;;;;;21.85;58.82;100644.63;4958056;28;124029;-61
2022/06/08 07:58:35;;;;;;;5.32;3.85;;;;;;;21.87;58.79;100639.94;4952446;28;117832;-61
2022/06/08 08:01:02;;;;;;;5.63;3.92;;;;;;;21.87;58.59;100645.31;4967790;28;115058;-61
2022/06/08 08:03:29;;;;;;;4.82;3.67;;;;;;;21.89;58.84;100651.41;4970617;28;124580;-61
2022/06/08 08:05:57;;;;;;;6.03;3.90;;;;;;;21.93;58.73;100647.41;4973460;28;123959;-61
2022/06/08 08:08:24;;;;;;;6.47;4.00;;;;;;;21.97;58.73;100642.59;4970688;28;114903;-61
2022/06/08 08:10:51;;;;;;;4.60;3.88;;;;;;;22.04;58.79;100648.22;4971045;28;113966;-61
2022/06/08 08:13:19;;;;;;;6.63;4.30;;;;;;;22.12;58.59;100645.66;4970570;28;125567;-61
2022/06/08 08:15:46;;;;;;;6.15;4.00;;;;;;;22.17;58.40;100643.34;4953703;28;124518;-61
2022/06/08 08:18:13;;;;;;;5.90;3.55;;;;;;;22.24;58.55;100641.72;4959050;28;114591;-61
2022/06/08 08:20:41;;;;;;;5.00;3.42;;;;;;;22.30;58.62;100649.28;4957252;28;114346;-61
2022/06/08 08:23:08;;;;;;;4.30;3.67;;;;;;;22.38;58.44;100644.97;4963546;28;123945;-61
2022/06/08 08:25:35;;;;;;;5.18;3.42;;;;;;;22.45;58.06;100646.06;4952638;28;124712;-61
2022/06/08 08:28:03;;;;;;;5.07;3.20;;;;;;;22.50;57.91;100649.16;4957468;28;114609;-61
2022/06/08 08:30:31;;;;;;;6.28;3.28;;;;;;;22.57;57.91;100642.16;4973704;28;115051;-61
2022/06/08 08:32:58;;;;;;;4.43;3.30;;;;;;;22.63;57.65;100638.84;4969295;28;124089;-61
2022/06/08 08:35:28;;;;;;;8.13;2.90;;;;;;;22.70;57.86;100634.53;4952844;28;122867;-61
2022/06/08 08:37:56;;;;;;;4.32;2.97;;;;;;;22.81;57.62;100629.91;4951593;28;114913;-61
2022/06/08 08:40:44;;;;;;;5.57;3.20;;;;;;;22.91;57.39;100636.09;4965102;28;114749;-61
2022/06/08 08:43:15;;;;;;;4.63;2.75;;;;;;;23.01;57.07;100626.03;4970473;28;124097;-61
2022/06/08 08:46:16;;;;;;;3.72;2.80;;;;;;;23.13;57.04;100635.66;4969608;28;124199;-61
2022/06/08 08:48:47;;;;;;;3.75;2.67;;;;;;;23.23;56.87;100629.31;4958836;28;116444;-61
2022/06/08 08:51:23;;;;;;;5.18;2.80;;;;;;;23.28;56.66;100627.81;4958470;28;113817;-61
2022/06/08 08:54:05;;;;;;;5.55;2.88;;;;;;;23.38;56.60;100622.31;4959723;28;124057;-61
2022/06/08 08:56:38;;;;;;;4.13;2.75;;;;;;;23.46;56.52;100619.66;4970587;28;123146;-61
2022/06/08 08:59:17;;;;;;;5.07;2.90;;;;;;;23.57;56.15;100620.41;4952823;28;115659;-61
2022/06/08 09:01:51;;;;;;;4.05;2.55;;;;;;;23.64;55.71;100616.03;4964464;28;114180;-60
2022/06/08 09:04:30;;;;;;;6.60;2.83;;;;;;;23.70;55.69;100615.44;4960331;28;125404;-60
2022/06/08 09:07:03;;;;;;;4.95;2.40;;;;;;;23.77;55.51;100616.50;4967474;28;124250;-61
2022/06/08 09:09:32;;;;;;;6.80;2.60;;;;;;;23.80;55.46;100621.59;4955551;28;113318;-61
2022/06/08 09:12:01;;;;;;;6.05;2.40;;;;;;;23.85;55.24;100624.66;4965225;28;113523;-61
2022/06/08 09:14:57;;;;;;;5.63;2.30;;;;;;;23.92;55.09;100618.59;4981308;28;123086;-61
2022/06/08 09:17:36;;;;;;;5.50;1.90;;;;;;;23.95;54.78;100623.69;4969582;28;125073;-61
2022/06/08 09:20:16;;;;;;;5.13;2.20;;;;;;;23.98;54.67;100628.75;4972421;28;114655;-61
2022/06/08 09:22:53;;;;;;;5.43;2.50;;;;;;;23.96;54.11;100625.38;4958597;28;114273;-61
2022/06/08 09:25:34;;;;;;;9.00;2.35;;;;;;;23.93;53.95;100620.31;4969790;28;124892;-61
2022/06/08 09:28:20;;;;;;;4.47;2.20;;;;;;;23.92;54.08;100624.00;4968898;28;123735;-61
2022/06/08 09:30:51;;;;;;;6.82;2.30;;;;;;;23.88;53.93;100618.94;4969895;28;114718;-61
2022/06/08 09:33:34;;;;;;;4.57;2.20;;;;;;;23.84;53.96;100617.53;4967689;28;114472;-61
2022/06/08 09:36:07;;;;;;;5.60;2.00;;;;;;;23.82;53.62;100614.16;4970611;28;123592;-61
2022/06/08 09:38:42;;;;;;;6.18;2.00;;;;;;;23.80;53.62;100616.19;4962421;28;123624;-61
2022/06/08 09:41:42;;;;;;;5.45;1.90;;;;;;;23.81;53.73;100623.31;4964857;28;114741;-61
2022/06/08 09:44:27;;;;;;;5.15;2.20;;;;;;;23.80;53.52;100616.19;4968261;28;114781;-61
2022/06/08 09:53:11;;;;;;;5.90;2.35;;;;;;;23.82;53.57;100608.75;4956219;28;114223;-61
2022/06/08 09:55:47;;;;;;;4.45;2.35;;;;;;;23.81;53.41;100612.47;4957532;28;114101;-61
2022/06/08 09:58:48;;;;;;;5.05;2.40;;;;;;;23.80;53.43;100610.78;4954010;28;124033;-61
2022/06/08 10:01:35;;;;;;;4.75;2.00;;;;;;;23.79;53.44;100614.50;4957854;28;124231;-61
2022/06/08 10:04:35;;;;;;;4.22;1.80;;;;;;;23.76;53.29;100609.38;4956013;28;114789;-61
2022/06/08 10:07:19;;;;;;;4.10;1.80;;;;;;;23.75;53.21;100613.06;4966477;28;114089;-61
2022/06/08 10:10:34;;;;;;;5.28;1.95;;;;;;;23.74;52.99;100624.91;4960826;28;124094;-61
2022/06/08 10:13:11;;;;;;;5.13;1.52;;;;;;;23.69;52.98;100619.13;4963879;28;124802;-61
2022/06/08 10:15:46;;;;;;;2.63;1.60;;;;;;;23.63;53.02;100619.78;4961403;28;114898;-61
2022/06/08 10:18:19;;;;;;;5.00;1.70;;;;;;;23.58;52.99;100616.69;4957863;28;113189;-61
2022/06/08 10:21:01;;;;;;;8.35;1.88;;;;;;;23.51;53.00;100617.34;4968693;28;123449;-61
2022/06/08 10:23:41;;;;;;;6.35;2.08;;;;;;;23.47;52.50;100615.97;4967697;28;124093;-61
2022/06/08 10:26:27;;;;;;;4.47;1.73;;;;;;;23.41;52.47;100629.25;4965664;28;115494;-61
2022/06/08 10:29:18;;;;;;;5.93;1.92;;;;;;;23.28;52.53;100629.66;4967626;28;113988;-61
2022/06/08 10:31:54;;;;;;;8.15;2.45;;;;;;;23.17;52.31;100627.22;4971368;28;123986;-61
2022/06/08 10:34:31;;;;;;;3.53;2.55;;;;;;;23.05;52.54;100637.41;4972362;28;124711;-61
2022/06/08 10:37:11;;;;;;;6.25;2.80;;;;;;;22.94;52.95;100635.75;4965684;28;114389;-61
2022/06/08 10:39:39;;;;;;;9.00;2.92;;;;;;;22.81;53.33;100627.19;4967694;28;114928;-61
2022/06/08 10:42:40;;;;;;;8.88;3.00;;;;;;;22.65;53.45;100628.75;4959926;28;124067;-61
2022/06/08 10:45:23;;;;;;;6.60;3.00;;;;;;;22.48;53.94;100635.81;4970975;28;126257;-61
2022/06/08 10:48:03;;;;;;;7.93;2.85;;;;;;;22.37;54.37;100632.47;4966171;28;114693;-61
2022/06/08 10:50:48;;;;;;;8.93;3.17;;;;;;;22.29;54.57;100631.38;4971523;28;113890;-61
2022/06/08 10:56:45;;;;;;;10.43;3.55;;;;;;;22.10;55.29;100637.69;4970310;28;124017;-61
2022/06/08 10:59:16;;;;;;;6.90;2.95;;;;;;;22.07;55.60;100642.53;4957251;28;114443;-61
2022/06/08 11:01:59;;;;;;;6.60;3.45;;;;;;;22.02;55.89;100645.69;4967151;28;114292;-61
2022/06/08 11:04:27;;;;;;;7.82;3.40;;;;;;;21.97;55.86;100646.13;4969386;28;122911;-61
2022/06/08 11:06:57;;;;;;;5.30;2.88;;;;;;;21.87;56.06;100637.22;4970151;28;124132;-61
2022/06/08 11:09:33;;;;;;;6.38;3.30;;;;;;;21.79;56.18;100645.19;4968462;28;114056;-61
2022/06/08 11:12:11;;;;;;;5.03;3.20;;;;;;;21.72;56.48;100638.72;4967376;28;113494;-61
2022/06/08 11:14:48;;;;;;;4.95;3.00;;;;;;;21.66;56.47;100639.28;4965331;28;123172;-61
2022/06/08 11:17:25;;;;;;;7.32;3.22;;;;;;;21.57;56.69;100631.06;4983781;28;122797;-61
2022/06/08 11:19:58;;;;;;;8.73;3.00;;;;;;;21.52;56.84;100621.72;4968047;28;114607;-61
2022/06/08 11:22:32;;;;;;;4.72;2.42;;;;;;;21.47;57.15;100616.75;4982210;28;113172;-61
2022/06/08 11:25:05;;;;;;;6.40;2.60;;;;;;;21.44;57.26;100606.28;4970704;28;124178;-61
2022/06/08 11:27:38;;;;;;;7.82;2.65;;;;;;;21.42;57.47;100605.56;4966022;28;124095;-61
2022/06/08 11:30:14;;;;;;;6.15;2.67;;;;;;;21.42;57.47;100594.78;4966253;28;114350;-61
2022/06/08 11:33:10;;;;;;;6.43;3.15;;;;;;;21.41;57.51;100593.06;4965724;28;114930;-61
2022/06/08 11:36:04;;;;;;;9.43;2.65;;;;;;;21.38;57.74;100588.00;4966056;28;124751;-61
2022/06/08 11:38:46;;;;;;;8.02;2.25;;;;;;;21.35;57.59;100590.97;4956411;28;123739;-61
2022/06/08 11:41:24;;;;;;;4.40;2.15;;;;;;;21.28;57.71;100589.84;4969945;28;114002;-61
2022/06/08 11:43:55;;;;;;;5.43;2.17;;;;;;;21.22;57.70;100583.19;4973032;28;114052;-61
2022/06/08 11:46:45;;;;;;;5.03;1.90;;;;;;;21.15;57.73;100582.94;4972455;28;124201;-61
2022/06/08 11:49:31;;;;;;;5.95;2.10;;;;;;;21.10;58.00;100579.81;4962358;28;123845;-61
2022/06/08 11:52:15;;;;;;;5.88;1.92;;;;;;;21.07;57.99;100585.47;4967963;28;115186;-61
2022/06/08 11:54:42;;;;;;;4.03;1.63;;;;;;;21.03;57.99;100578.69;4964904;28;113691;-61
2022/06/08 11:57:17;;;;;;;5.43;1.90;;;;;;;20.98;58.12;100586.34;4970884;28;123775;-61
2022/06/08 11:59:45;;;;;;;4.78;2.05;;;;;;;20.96;58.26;100582.94;4971841;28;123927;-61